ADDS METAR Data INFO
IDs: Format: Raw Decoded Include TAF

Data at: 0936 UTC 25 Jun 2018

KEIK 250918Z AUTO 00000KT 10SM CLR 10/09 A3019 RMK AO2 T00970085
KEIK 250854Z AUTO 00000KT 10SM CLR 10/08 A3019 RMK AO2 T00950081
KEIK 250836Z AUTO 23004KT 10SM CLR 09/08 A3019 RMK AO2 T00920080
KEIK 250818Z AUTO 21004KT 10SM CLR 09/08 A3019 RMK AO2 T00900078
KEIK 250754Z AUTO 00000KT 10SM CLR 11/09 A3018 RMK AO2 T01050086
KEIK 250736Z AUTO 00000KT 10SM CLR 10/08 A3018 RMK AO2 T01040084
KEIK 250718Z AUTO 00000KT 10SM CLR 11/09 A3018 RMK AO2 T01140089
KEIK 250653Z AUTO 00000KT 10SM CLR 11/09 A3018 RMK AO2 T01090087
KEIK 250636Z AUTO 00000KT 10SM CLR 11/09 A3018 RMK AO2 T01080090
KEIK 250618Z AUTO 00000KT 10SM CLR 10/08 A3019 RMK AO2 T01000083
KEIK 250554Z AUTO 23003KT 10SM CLR 11/09 A3021 RMK AO2 T01070086
KEIK 250536Z AUTO 00000KT 10SM CLR 12/09 A3022 RMK AO2 T01170092
KEIK 250518Z AUTO 00000KT 10SM CLR 11/09 A3022 RMK AO2 T01110090
KEIK 250453Z AUTO 23004KT 10SM CLR 12/10 A3022 RMK AO2 T01200095
KEIK 250435Z AUTO 00000KT 10SM CLR 13/10 A3023 RMK AO2 T01250097
KEIK 250418Z AUTO 00000KT 10SM CLR 13/10 A3023 RMK AO2 T01310099
KEIK 250354Z AUTO 00000KT 10SM CLR 14/10 A3023 RMK AO2 T01400097
KEIK 250336Z AUTO 00000KT 10SM CLR 14/10 A3022 RMK AO2 T01410100
KEIK 250318Z AUTO 00000KT 10SM CLR 14/10 A3021 RMK AO2 T01420099
KEIK 250254Z AUTO 26003KT 10SM CLR 15/10 A3020 RMK AO2 T01510095
KEIK 250236Z AUTO 00000KT 10SM CLR 15/10 A3019 RMK AO2 T01480099
KEIK 250218Z AUTO 00000KT 10SM CLR 16/10 A3019 RMK AO2 T01610096
KEIK 250154Z AUTO 00000KT 10SM SCT110 17/09 A3019 RMK AO2 T01660090
KEIK 250136Z AUTO 04005KT 10SM -RA SCT070 SCT080 SCT100 17/09 A3019 RMK AO2 T01720091
KEIK 250118Z AUTO 01005KT 10SM SCT070 SCT100 18/08 A3020 RMK AO2 T01750084
KEIK 250058Z AUTO 04006KT 10SM SCT100 18/08 A3018 RMK AO2 T01760075
KEIK 250034Z AUTO 03007KT 10SM BKN100 BKN120 18/07 A3018 RMK AO2 T01820071
KEIK 250016Z AUTO 03008KT 10SM SCT110 19/08 A3018 RMK AO2 T01890081
KEIK 242354Z AUTO 01010KT 10SM BKN120 19/07 A3016 RMK AO2 LTG DSNT E T01880068
KEIK 242336Z AUTO 04008KT 10SM SCT100 20/06 A3015 RMK AO2 T02030063
KEIK 242318Z AUTO 01007KT 10SM SCT043 SCT110 21/07 A3015 RMK AO2 T02110065
KEIK 242254Z AUTO 07005KT 10SM CLR 20/06 A3015 RMK AO2 T02040062
KEIK 242236Z AUTO 02005KT 10SM SCT065 20/08 A3015 RMK AO2 LTG DSNT E T01970083
KEIK 242218Z AUTO 00000KT 10SM SCT065 19/09 A3015 RMK AO2 T01870090
KEIK 242154Z AUTO 05006KT 10SM CLR 18/09 A3015 RMK AO2 LTG DSNT E T01760094
KEIK 242136Z AUTO 05003KT 10SM CLR 18/10 A3014 RMK AO2 T01760097
KEIK 242118Z AUTO 04008KT 10SM CLR 18/10 A3014 RMK AO2 LTG DSNT S T01760103
KEIK 242054Z AUTO 02013G19KT 7SM SCT042 SCT060 SCT070 19/11 A3016 RMK AO2 LTG DSNT E AND S T01900105
KEIK 242036Z AUTO 02012G18KT 10SM SCT041 SCT047 BKN060 17/11 A3016 RMK AO2 LTG DSNT N NE AND S T01710105
KEIK 242018Z AUTO 01012G18KT 10SM VCTS CLR 16/11 A3014 RMK AO2 LTG DSNT ALQS T01640110
KEIK 241954Z AUTO 01005KT 10SM VCTS SCT120 13/11 A3014 RMK AO2 LTG DSNT ALQS T01320107
KEIK 241936Z AUTO 31005KT 10SM VCTS CLR 13/10 A3014 RMK AO2 LTG DSNT ALQS T01290102
KEIK 241918Z AUTO 02014KT 10SM -TSRA SCT075 SCT080 SCT090 13/10 A3011 RMK AO2 LTG DSNT NE THRU S T01250101
KEIK 241854Z AUTO 03013G21KT 10SM -VCTSRA SCT047 SCT075 SCT090 13/08 A3013 RMK AO2 LTG DSNT ALQS T01330080
KEIK 241836Z AUTO 01020G28KT 10SM TS SCT047 SCT075 18/08 A3013 RMK AO2 LTG DSNT ALQS T01760076
KEIK 241818Z AUTO 06008KT 10SM VCTS SCT050 SCT060 SCT075 20/08 A3009 RMK AO2 LTG DSNT ALQS T01950081
KEIK 241754Z AUTO 09005KT 10SM -VCTSRA BKN050 BKN060 BKN100 20/07 A3010 RMK AO2 LTG DSNT SW AND W T01960070
KEIK 241736Z AUTO 10004KT 10SM VCTS SCT050 SCT060 20/06 A3008 RMK AO2 LTG DSNT W AND NW T01970064
KEIK 241718Z AUTO 00000KT 10SM VCTS SCT048 20/06 A3009 RMK AO2 LTG DSNT W THRU N T02000064
KEIK 241654Z AUTO 00000KT 10SM VCTS CLR 21/06 A3009 RMK AO2 LTG DSNT W THRU NE T02100063
KEIK 241636Z AUTO 00000KT 10SM SCT047 SCT100 21/06 A3009 RMK AO2 LTG DSNT W T02050062
KEIK 241618Z AUTO 11004KT 10SM SCT047 BKN065 21/06 A3009 RMK AO2 LTG DSNT N AND W T02080064
KEIK 241554Z AUTO 16004KT 10SM BKN049 OVC060 20/06 A3010 RMK AO2 LTG DSNT NW T01990063
KEIK 241536Z AUTO 00000KT 10SM VCTS SCT049 OVC060 19/06 A3010 RMK AO2 T01900060
KEIK 241518Z AUTO 07005KT 10SM BKN049 OVC060 19/06 A3010 RMK AO2 LTG DSNT N AND NW T01870060
KEIK 241454Z AUTO 14006KT 10SM SCT047 BKN060 19/06 A3010 RMK AO2 T01870058
KEIK 241436Z AUTO 00000KT 10SM BKN060 19/06 A3009 RMK AO2 T01850063
KEIK 241418Z AUTO 15006KT 10SM SCT060 18/07 A3009 RMK AO2 LTG DSNT NW T01820069
KEIK 241354Z AUTO 19006KT 10SM CLR 18/08 A3009 RMK AO2 LTG DSNT NW T01810076
KEIK 241336Z AUTO 21007KT 10SM CLR 18/08 A3008 RMK AO2 T01770081
KEIK 241318Z AUTO 21007KT 10SM CLR 17/09 A3007 RMK AO2 T01710085
KEIK 241254Z AUTO 18003KT 10SM CLR 16/09 A3006 RMK AO2 T01590086
KEIK 241236Z AUTO 15003KT 10SM CLR 15/09 A3006 RMK AO2 T01470090
KEIK 241213Z AUTO 20003KT 10SM CLR 14/09 A3005 RMK AO2 T01370088
KEIK 241154Z AUTO 19005KT 10SM CLR 14/09 A3004 RMK AO2 T01440088
KEIK 241136Z AUTO 19003KT 10SM -RA SCT060 SCT070 SCT090 15/09 A3003 RMK AO2 T01510089
KEIK 241118Z AUTO 19007KT 10SM BKN060 BKN100 15/09 A3006 RMK AO2 T01480087
KEIK 241055Z AUTO 14005KT 10SM BKN060 15/09 A3006 RMK AO2 T01490086
KEIK 241037Z AUTO 14005KT 10SM BKN060 15/09 A3005 RMK AO2 T01500085
KEIK 241018Z AUTO 14005KT 10SM OVC060 15/09 A3006 RMK AO2 T01470090
KEIK 240954Z AUTO 00000KT 10SM OVC060 A3011 RMK AO2
KEIK 240936Z AUTO 00000KT 10SM BKN060 A3007 RMK AO2
KEIK 240918Z AUTO 22004KT 10SM CLR A3007 RMK AO2
KEIK 240854Z AUTO 20005KT 10SM CLR A3006 RMK AO2
KEIK 240836Z AUTO 23003KT 10SM SCT055 SCT065 A3007 RMK AO2
KEIK 240818Z AUTO 30004KT 10SM BKN055 A3008 RMK AO2
KEIK 240754Z AUTO 32006KT 10SM CLR A3010 RMK AO2 LTG DSNT NE AND E
KEIK 240736Z AUTO 32007KT 10SM CLR A3009 RMK AO2
KEIK 240718Z AUTO 33005KT 10SM CLR A3009 RMK AO2 LTG DSNT E
KEIK 240653Z AUTO 33007KT 10SM CLR A3007 RMK AO2 LTG DSNT NE
KEIK 240636Z AUTO 04006KT 10SM -VCTSDZ SCT110 A3005 RMK AO2 LTG DSNT NE AND NW
KEIK 240618Z AUTO 36007KT 10SM -RA SCT110 A3008 RMK AO2 LTG DSNT NE
KEIK 240554Z AUTO 34009G14KT 10SM -RA SCT090 BKN120 A3006 RMK AO2
KEIK 240536Z AUTO 33013KT 10SM SCT090 SCT120 A3008 RMK AO2
KEIK 240518Z AUTO 35007KT 10SM CLR A3002 RMK AO2 LTG DSNT NE
KEIK 240454Z AUTO 36008KT 10SM SCT090 SCT120 A3003 RMK AO2
KEIK 240436Z AUTO 01014G19KT 10SM SCT100 A3002 RMK AO2
KEIK 240418Z AUTO 04012KT 10SM SCT110 A3000 RMK AO2
KEIK 240354Z AUTO 03013G19KT 10SM CLR A2996 RMK AO2
KEIK 240336Z AUTO 04016G20KT 10SM CLR A2994 RMK AO2
KEIK 240318Z AUTO 04017G29KT 10SM CLR 22/04 A2992 RMK AO2 T02240035
KEIK 240254Z AUTO 03016G20KT 10SM CLR 24/04 A2990 RMK AO2 T02410035
KEIK 240236Z AUTO 02010G15KT 10SM CLR 24/04 A2990 RMK AO2 T02380041
KEIK 240218Z AUTO 33008KT 10SM CLR 23/06 A2989 RMK AO2 T02320060
KEIK 240154Z AUTO 35004KT 10SM CLR 23/06 A2987 RMK AO2 T02300056
KEIK 240136Z AUTO 36006KT 10SM CLR 25/06 A2985 RMK AO2 T02470056
KEIK 240118Z AUTO 36004KT 10SM CLR 26/04 A2984 RMK AO2 T02620043
KEIK 240058Z AUTO 01005KT 10SM CLR 28/00 A2984 RMK AO2 LTG DSNT N T02761003
KEIK 240034Z AUTO 05004KT 10SM CLR 30/M03 A2984 RMK AO2 T03021031
KEIK 240016Z AUTO 06005KT 10SM CLR 31/M03 A2984 RMK AO2 T03061031
KEIK 232354Z AUTO 05003KT 10SM CLR 31/M03 A2985 RMK AO2 LTG DSNT E T03081032
KEIK 232336Z AUTO 04005KT 10SM CLR 31/M03 A2984 RMK AO2 T03071028
KEIK 232318Z AUTO 00000KT 10SM CLR 31/M03 A2985 RMK AO2 T03051027
KEIK 232254Z AUTO 08009KT 10SM CLR 31/M03 A2986 RMK AO2 T03131029
KEIK 232236Z AUTO 30008KT 10SM CLR 32/M02 A2986 RMK AO2 T03151023
KEIK 232218Z AUTO 32009KT 10SM CLR 32/M02 A2986 RMK AO2 T03151022
KEIK 232154Z AUTO 25004KT 10SM CLR 31/M03 A2987 RMK AO2 T03081032